Time;durP1;ratioP1;P1;durP2;ratioP2;P2;SDS_P1;SDS_P2;PMS_P1;PMS_P2;Temp;Humidity;BMP_temperature;BMP_pressure;BME280_temperature;BME280_humidity;BME280_pressure;Samples;Min_cycle;Max_cycle;Signal;HPM_P1;HPM_P2
2023/01/25 00:01:28;;;;;;;19.48;12.95;;;2.60;99.90;;;;;;5036860;28;20172;-76
2023/01/25 00:03:53;;;;;;;19.55;12.73;;;2.60;99.90;;;;;;5060925;28;20211;-76
2023/01/25 00:06:19;;;;;;;19.02;12.80;;;2.60;99.90;;;;;;5059885;28;20255;-75
2023/01/25 00:08:51;;;;;;;20.38;13.20;;;2.60;99.90;;;;;;5056177;28;20172;-76
2023/01/25 00:11:18;;;;;;;19.02;13.32;;;2.50;99.90;;;;;;5044663;28;20669;-76
2023/01/25 00:13:44;;;;;;;16.63;12.95;;;2.50;99.90;;;;;;5051314;28;20199;-76
2023/01/25 00:16:10;;;;;;;19.85;13.45;;;2.50;99.90;;;;;;5047211;28;20663;-76
2023/01/25 00:18:36;;;;;;;19.02;13.60;;;2.50;99.90;;;;;;5053464;28;20187;-76
2023/01/25 00:21:12;;;;;;;19.73;13.82;;;2.40;99.90;;;;;;5053962;28;20180;-76
2023/01/25 00:23:37;;;;;;;19.20;13.95;;;2.50;99.90;;;;;;5054127;28;20312;-76
2023/01/25 00:26:03;;;;;;;22.48;14.98;;;2.50;99.90;;;;;;5061259;28;20242;-75
2023/01/25 00:28:29;;;;;;;18.05;13.27;;;2.50;99.90;;;;;;5061425;28;20182;-74
2023/01/25 00:31:15;;;;;;;18.98;13.10;;;2.50;99.90;;;;;;5062151;28;20192;-75
2023/01/25 00:33:51;;;;;;;21.33;14.40;;;2.40;99.90;;;;;;5064008;28;20670;-75
2023/01/25 00:36:27;;;;;;;15.55;12.10;;;2.50;99.90;;;;;;5053161;28;20174;-76
2023/01/25 00:38:53;;;;;;;21.48;13.02;;;2.50;99.90;;;;;;5056754;28;20175;-76
2023/01/25 00:41:19;;;;;;;18.88;13.10;;;2.40;99.90;;;;;;5057567;28;20201;-76
2023/01/25 00:43:45;;;;;;;16.73;12.45;;;2.50;99.90;;;;;;5063477;28;20203;-75
2023/01/25 00:46:15;;;;;;;19.70;12.88;;;2.50;99.90;;;;;;5059628;28;20245;-75
2023/01/25 00:48:40;;;;;;;20.08;12.68;;;2.50;99.90;;;;;;5053235;28;20184;-75
2023/01/25 00:51:06;;;;;;;17.45;12.27;;;2.50;99.90;;;;;;5066795;28;20755;-75
2023/01/25 00:53:31;;;;;;;19.50;14.20;;;2.50;99.90;;;;;;5056473;28;20270;-75
2023/01/25 00:55:57;;;;;;;19.42;13.25;;;2.40;99.90;;;;;;5063712;28;20183;-75
2023/01/25 00:58:23;;;;;;;18.58;13.00;;;2.30;99.90;;;;;;5056578;28;20179;-75
2023/01/25 01:00:48;;;;;;;18.73;12.80;;;2.40;99.90;;;;;;5058352;28;20266;-75
2023/01/25 01:03:15;;;;;;;18.33;12.63;;;2.30;99.90;;;;;;5049861;28;20188;-76
2023/01/25 01:05:40;;;;;;;17.42;12.05;;;2.40;99.90;;;;;;5057950;28;20576;-76
2023/01/25 01:08:06;;;;;;;18.75;12.50;;;2.40;99.90;;;;;;5056554;28;20182;-75
2023/01/25 01:20:18;;;;;;;18.38;13.07;;;2.30;99.90;;;;;;5054672;28;20186;-74
2023/01/25 01:22:44;;;;;;;18.75;12.18;;;2.30;99.90;;;;;;5053365;28;20188;-75
2023/01/25 01:25:10;;;;;;;19.45;13.82;;;2.30;99.90;;;;;;5062557;28;20213;-75
2023/01/25 01:27:35;;;;;;;17.48;12.80;;;2.30;99.90;;;;;;5049200;28;20651;-76
2023/01/25 01:30:01;;;;;;;19.17;13.15;;;2.30;99.90;;;;;;5060358;28;20179;-73
2023/01/25 01:32:26;;;;;;;17.75;12.63;;;2.30;99.90;;;;;;5058130;28;20221;-74
2023/01/25 01:34:52;;;;;;;17.50;11.50;;;2.30;99.90;;;;;;5058869;28;20529;-74
2023/01/25 01:37:17;;;;;;;14.00;11.23;;;2.30;99.90;;;;;;5049467;28;20187;-74
2023/01/25 01:39:43;;;;;;;17.70;13.27;;;2.30;99.90;;;;;;5059931;28;20238;-73
2023/01/25 01:42:08;;;;;;;17.30;12.02;;;2.30;99.90;;;;;;5051414;28;20188;-74
2023/01/25 01:44:47;;;;;;;16.88;12.20;;;2.10;99.90;;;;;;5060118;28;20625;-75
2023/01/25 01:47:33;;;;;;;17.30;11.57;;;2.10;99.90;;;;;;5054604;28;20202;-75
2023/01/25 01:50:03;;;;;;;16.15;11.32;;;2.00;99.90;;;;;;5061162;28;20290;-75
2023/01/25 01:52:35;;;;;;;18.38;13.15;;;2.10;99.90;;;;;;5062528;28;20168;-74
2023/01/25 01:55:13;;;;;;;15.70;12.00;;;2.10;99.90;;;;;;5061754;28;20196;-73
2023/01/25 01:57:46;;;;;;;14.10;10.63;;;2.10;99.90;;;;;;5037156;28;20536;-73
2023/01/25 02:00:25;;;;;;;15.35;12.45;;;2.00;99.90;;;;;;5052073;28;20233;-74
2023/01/25 02:02:53;;;;;;;16.73;11.30;;;2.00;99.90;;;;;;5048971;28;20175;-73
2023/01/25 02:05:26;;;;;;;16.50;11.65;;;1.90;99.90;;;;;;5048214;28;20266;-74
2023/01/25 02:07:53;;;;;;;14.77;10.60;;;1.90;99.90;;;;;;5048254;28;20511;-73
2023/01/25 02:10:20;;;;;;;15.65;10.80;;;2.00;99.90;;;;;;5036512;28;20721;-75
2023/01/25 02:12:47;;;;;;;15.75;11.30;;;2.00;99.90;;;;;;5037832;28;20183;-74
2023/01/25 02:15:13;;;;;;;14.57;10.90;;;2.00;99.90;;;;;;5042533;28;20204;-75
2023/01/25 02:17:40;;;;;;;16.92;12.35;;;2.00;99.90;;;;;;5050775;28;20259;-74
2023/01/25 02:20:19;;;;;;;15.75;11.45;;;2.00;99.90;;;;;;5036923;28;20234;-74
2023/01/25 02:22:47;;;;;;;13.88;10.23;;;1.90;99.90;;;;;;5039601;28;20658;-75
2023/01/25 02:25:15;;;;;;;17.90;11.50;;;1.90;99.90;;;;;;5055542;28;20218;-73
2023/01/25 02:27:46;;;;;;;15.88;11.95;;;1.80;99.90;;;;;;5035679;28;20220;-73
2023/01/25 02:30:12;;;;;;;14.90;11.07;;;1.80;99.90;;;;;;5041619;28;20238;-73
2023/01/25 02:32:37;;;;;;;16.23;10.52;;;1.80;99.90;;;;;;5057993;28;20543;-74
2023/01/25 02:35:04;;;;;;;16.10;11.43;;;1.90;99.90;;;;;;5043559;28;20220;-75
2023/01/25 02:37:30;;;;;;;18.08;12.27;;;1.80;99.90;;;;;;5046947;28;20218;-74
2023/01/25 02:39:55;;;;;;;14.48;10.75;;;1.80;99.90;;;;;;5045007;28;20184;-74
2023/01/25 02:42:21;;;;;;;14.70;11.35;;;1.80;99.90;;;;;;5044114;28;20237;-74
2023/01/25 02:44:49;;;;;;;13.90;10.30;;;1.90;99.90;;;;;;5044071;28;20199;-74
2023/01/25 02:47:14;;;;;;;16.15;11.95;;;1.90;99.90;;;;;;5041267;28;20557;-74
2023/01/25 02:49:40;;;;;;;14.73;11.38;;;1.90;99.90;;;;;;5047224;28;20188;-74
2023/01/25 02:52:05;;;;;;;14.05;10.73;;;1.80;99.90;;;;;;5051253;28;20176;-75
2023/01/25 02:54:32;;;;;;;13.93;10.70;;;1.80;99.90;;;;;;5035599;28;20208;-74
2023/01/25 02:56:57;;;;;;;16.85;11.70;;;1.80;99.90;;;;;;5039994;28;20180;-74
2023/01/25 02:59:23;;;;;;;14.40;10.35;;;1.90;99.90;;;;;;5051140;28;20536;-75
2023/01/25 03:01:49;;;;;;;13.30;9.73;;;1.90;99.90;;;;;;5037190;28;20229;-74
2023/01/25 03:04:14;;;;;;;16.17;11.40;;;1.90;99.90;;;;;;5050918;28;20215;-75
2023/01/25 03:06:41;;;;;;;13.85;10.20;;;1.90;99.90;;;;;;5048011;28;20272;-76
2023/01/25 03:09:08;;;;;;;14.93;10.68;;;1.90;99.90;;;;;;5042581;28;20172;-75
2023/01/25 03:11:34;;;;;;;13.38;10.60;;;1.90;99.90;;;;;;5040371;28;20173;-75
2023/01/25 03:14:00;;;;;;;12.73;9.68;;;1.90;99.90;;;;;;5036202;28;20211;-74
2023/01/25 03:16:26;;;;;;;12.73;9.25;;;1.90;99.90;;;;;;5033533;28;20180;-73
2023/01/25 03:18:53;;;;;;;14.23;10.52;;;1.90;99.90;;;;;;5043323;28;20180;-73
2023/01/25 03:21:20;;;;;;;14.07;10.05;;;1.90;99.90;;;;;;5041719;28;20169;-73
2023/01/25 03:23:47;;;;;;;14.10;9.95;;;1.90;99.90;;;;;;5047730;28;20283;-73
2023/01/25 03:26:18;;;;;;;12.98;9.93;;;1.90;99.90;;;;;;5051154;28;20199;-74
2023/01/25 03:28:44;;;;;;;15.75;10.38;;;1.90;99.90;;;;;;5038129;28;20702;-73
2023/01/25 03:31:14;;;;;;;13.73;10.73;;;1.80;99.90;;;;;;5053478;28;20199;-74
2023/01/25 03:33:41;;;;;;;14.82;10.57;;;1.90;99.90;;;;;;5037133;28;20261;-73
2023/01/25 03:36:07;;;;;;;13.45;10.05;;;1.90;99.90;;;;;;5039729;28;20179;-73
2023/01/25 03:38:33;;;;;;;13.70;10.23;;;1.90;99.90;;;;;;5053244;28;20172;-73
2023/01/25 03:40:59;;;;;;;15.02;10.95;;;1.90;99.90;;;;;;5045534;28;20184;-74
2023/01/25 03:43:26;;;;;;;13.98;10.52;;;1.90;99.90;;;;;;5055652;28;20184;-74
2023/01/25 03:45:59;;;;;;;13.52;10.15;;;1.80;99.90;;;;;;5047471;28;20203;-75
2023/01/25 03:48:25;;;;;;;14.63;9.98;;;1.90;99.90;;;;;;5045678;28;20259;-73
2023/01/25 03:50:53;;;;;;;15.75;10.20;;;1.90;99.90;;;;;;5053430;28;20647;-75
2023/01/25 03:53:27;;;;;;;12.80;10.32;;;1.80;99.90;;;;;;5054884;28;20190;-74
2023/01/25 03:55:54;;;;;;;14.32;10.25;;;1.90;99.90;;;;;;5050741;28;21523;-75
2023/01/25 03:58:20;;;;;;;14.40;10.30;;;2.00;99.90;;;;;;5044090;28;20649;-75
2023/01/25 04:00:46;;;;;;;14.80;10.73;;;2.00;99.90;;;;;;5059366;28;20190;-75
2023/01/25 04:03:11;;;;;;;14.48;11.00;;;2.00;99.90;;;;;;5055414;28;20270;-76
2023/01/25 04:05:37;;;;;;;15.80;10.57;;;1.90;99.90;;;;;;5048106;28;20220;-74
2023/01/25 04:08:03;;;;;;;15.15;10.57;;;1.90;99.90;;;;;;5065843;28;20548;-74
2023/01/25 04:10:28;;;;;;;14.75;10.27;;;1.90;99.90;;;;;;5058491;28;20223;-76
2023/01/25 04:12:54;;;;;;;13.75;10.55;;;1.90;99.90;;;;;;5056367;28;20521;-75
2023/01/25 04:15:19;;;;;;;14.95;10.38;;;1.90;99.90;;;;;;5058741;28;20294;-75
2023/01/25 04:17:45;;;;;;;12.95;10.18;;;1.90;99.90;;;;;;5055631;28;20176;-75
2023/01/25 04:20:11;;;;;;;14.00;10.45;;;2.00;99.90;;;;;;5039687;28;20176;-76
2023/01/25 04:22:37;;;;;;;14.95;10.82;;;1.90;99.90;;;;;;5057437;28;20174;-77
2023/01/25 04:25:02;;;;;;;12.90;10.00;;;1.90;99.90;;;;;;5055500;28;20230;-74
2023/01/25 04:27:28;;;;;;;15.43;11.25;;;2.00;99.90;;;;;;5060421;28;20176;-75
2023/01/25 04:29:53;;;;;;;15.38;11.30;;;1.90;99.90;;;;;;5058092;28;20613;-75
2023/01/25 04:32:19;;;;;;;15.25;11.48;;;1.90;99.90;;;;;;5057969;28;20176;-79
2023/01/25 04:34:45;;;;;;;14.05;10.57;;;1.80;99.90;;;;;;5056319;28;20265;-77
2023/01/25 04:37:10;;;;;;;14.15;11.20;;;1.80;99.90;;;;;;5057061;28;20174;-78
2023/01/25 04:39:36;;;;;;;15.75;10.95;;;1.80;99.90;;;;;;5058103;28;20172;-78
2023/01/25 04:42:01;;;;;;;13.35;10.90;;;1.80;99.90;;;;;;5059335;28;20234;-77
2023/01/25 04:44:27;;;;;;;13.82;10.30;;;1.80;99.90;;;;;;5055452;28;20649;-77
2023/01/25 04:46:52;;;;;;;14.88;10.93;;;1.80;99.90;;;;;;5062384;28;20231;-77
2023/01/25 04:49:18;;;;;;;14.60;10.15;;;1.80;99.90;;;;;;5048932;28;20167;-77
2023/01/25 04:51:44;;;;;;;15.57;10.68;;;1.80;99.90;;;;;;5062494;28;20678;-77
2023/01/25 04:54:09;;;;;;;14.88;11.15;;;1.80;99.90;;;;;;5059976;28;20194;-77
2023/01/25 04:56:35;;;;;;;14.57;10.48;;;1.90;99.90;;;;;;5060314;28;20188;-76
2023/01/25 04:59:00;;;;;;;15.38;11.13;;;1.80;99.90;;;;;;5054694;28;20210;-75
2023/01/25 05:01:26;;;;;;;13.43;10.63;;;1.90;99.90;;;;;;5045553;28;20536;-76
2023/01/25 05:03:51;;;;;;;19.00;11.57;;;1.80;99.90;;;;;;5052245;28;20223;-75
2023/01/25 05:06:17;;;;;;;15.48;10.93;;;1.70;99.90;;;;;;5062801;28;20341;-76
2023/01/25 05:08:42;;;;;;;16.20;11.27;;;1.60;99.90;;;;;;5065664;28;20171;-77
2023/01/25 05:11:08;;;;;;;15.57;10.75;;;1.70;99.90;;;;;;5057270;28;20175;-78
2023/01/25 05:13:34;;;;;;;16.23;11.40;;;1.80;99.90;;;;;;5053433;28;20213;-76
2023/01/25 05:15:59;;;;;;;13.68;11.00;;;1.80;99.90;;;;;;5052499;28;20635;-76
2023/01/25 05:18:25;;;;;;;15.95;10.40;;;1.70;99.90;;;;;;5048361;28;20552;-75
2023/01/25 05:20:57;;;;;;;18.88;12.32;;;1.70;99.90;;;;;;5052890;28;20207;-75
2023/01/25 05:23:23;;;;;;;15.98;10.95;;;1.70;99.90;;;;;;5060033;28;20188;-76
2023/01/25 05:28:33;;;;;;;15.43;10.82;;;1.80;99.90;;;;;;5038877;28;20203;-79
2023/01/25 05:30:58;;;;;;;18.42;11.75;;;1.80;99.90;;;;;;5055082;28;20606;-78
2023/01/25 05:33:24;;;;;;;15.32;10.75;;;1.80;99.90;;;;;;5056126;28;20252;-79
2023/01/25 05:35:49;;;;;;;16.35;11.65;;;1.80;99.90;;;;;;5050615;28;20172;-78
2023/01/25 05:38:15;;;;;;;18.85;11.07;;;1.90;99.90;;;;;;5051469;28;20202;-78
2023/01/25 05:40:40;;;;;;;14.73;10.68;;;1.90;99.90;;;;;;5054628;28;20225;-77
2023/01/25 05:43:07;;;;;;;14.35;10.13;;;1.90;99.90;;;;;;5056509;28;20175;-77
2023/01/25 05:45:32;;;;;;;15.40;11.95;;;1.90;99.90;;;;;;5057107;28;20231;-77
2023/01/25 05:47:58;;;;;;;15.70;11.40;;;2.00;99.90;;;;;;5061969;28;20184;-77
2023/01/25 05:50:25;;;;;;;14.18;10.32;;;2.00;99.90;;;;;;5047651;28;20165;-78
2023/01/25 05:52:50;;;;;;;16.42;10.68;;;1.90;99.90;;;;;;5056728;28;20658;-76
2023/01/25 05:55:16;;;;;;;16.50;10.35;;;2.00;99.90;;;;;;5049860;28;20234;-76
2023/01/25 05:57:42;;;;;;;14.70;10.63;;;2.10;99.90;;;;;;5054637;28;20183;-76
2023/01/25 06:00:09;;;;;;;14.68;11.32;;;2.10;99.90;;;;;;5048722;28;20182;-77
2023/01/25 06:02:35;;;;;;;13.98;10.23;;;2.00;99.90;;;;;;5047527;28;20241;-76
2023/01/25 06:05:02;;;;;;;17.45;11.05;;;1.90;99.90;;;;;;5043157;28;20341;-76
2023/01/25 06:07:28;;;;;;;13.00;10.73;;;1.90;99.90;;;;;;5063755;28;20207;-75
2023/01/25 06:09:53;;;;;;;15.73;11.57;;;2.00;99.90;;;;;;5051429;28;20182;-76
2023/01/25 06:12:20;;;;;;;17.50;11.52;;;2.00;99.90;;;;;;5055862;28;20163;-77
2023/01/25 06:14:46;;;;;;;16.58;11.70;;;1.90;99.90;;;;;;5053165;28;20206;-78
2023/01/25 06:17:12;;;;;;;18.73;11.70;;;1.90;99.90;;;;;;5066039;28;20172;-78
2023/01/25 06:19:38;;;;;;;15.00;10.80;;;1.90;99.90;;;;;;5059342;28;20184;-76
2023/01/25 06:22:04;;;;;;;14.30;10.90;;;2.00;99.90;;;;;;5062948;28;20210;-77
2023/01/25 06:24:29;;;;;;;16.05;11.25;;;2.20;99.90;;;;;;5052043;28;20197;-76
2023/01/25 06:26:55;;;;;;;15.15;10.48;;;2.10;99.90;;;;;;5059036;28;20713;-78
2023/01/25 06:29:20;;;;;;;17.13;11.70;;;2.10;99.90;;;;;;5053080;28;20594;-76
2023/01/25 06:31:46;;;;;;;18.42;10.95;;;2.20;99.90;;;;;;5055543;28;20251;-77
2023/01/25 06:34:11;;;;;;;15.75;11.32;;;2.20;99.90;;;;;;5051052;28;20199;-76
2023/01/25 06:36:37;;;;;;;15.57;10.68;;;2.10;99.90;;;;;;5057979;28;20211;-77
2023/01/25 06:39:03;;;;;;;15.50;9.82;;;2.20;99.90;;;;;;5058011;28;20202;-76
2023/01/25 06:41:28;;;;;;;15.45;11.75;;;2.20;99.90;;;;;;5055850;28;20224;-76
2023/01/25 06:43:54;;;;;;;14.43;11.02;;;2.30;99.90;;;;;;5056520;28;20290;-76
2023/01/25 06:46:20;;;;;;;15.10;11.30;;;2.20;99.90;;;;;;5061346;28;20203;-76
2023/01/25 06:48:46;;;;;;;14.88;11.13;;;2.30;99.90;;;;;;5053322;28;20271;-75
2023/01/25 06:51:14;;;;;;;14.88;10.70;;;2.30;99.90;;;;;;5054261;28;20191;-77
2023/01/25 06:53:42;;;;;;;14.57;11.05;;;2.30;99.90;;;;;;5048203;28;20745;-78
2023/01/25 06:56:17;;;;;;;15.57;11.68;;;2.30;99.90;;;;;;5053536;28;20233;-77
2023/01/25 06:58:42;;;;;;;12.80;10.10;;;2.30;99.90;;;;;;5047870;28;20179;-77
2023/01/25 07:01:13;;;;;;;13.35;9.90;;;2.30;99.90;;;;;;5039132;28;20182;-78
2023/01/25 07:03:38;;;;;;;12.80;10.25;;;2.30;99.90;;;;;;5046147;28;20223;-78
2023/01/25 07:06:07;;;;;;;12.68;10.18;;;2.20;99.90;;;;;;5057505;28;20708;-76
2023/01/25 07:08:33;;;;;;;12.77;9.87;;;2.20;99.90;;;;;;5059057;28;20174;-79
2023/01/25 07:11:01;;;;;;;12.00;10.02;;;2.10;99.90;;;;;;5050969;28;20171;-77
2023/01/25 07:13:28;;;;;;;12.00;9.95;;;2.20;99.90;;;;;;5061127;28;20187;-77
2023/01/25 07:15:57;;;;;;;11.10;9.00;;;2.30;99.90;;;;;;5050627;28;20237;-78
2023/01/25 07:18:24;;;;;;;12.80;9.85;;;2.40;99.90;;;;;;5060745;28;20175;-77
2023/01/25 07:20:50;;;;;;;13.27;10.18;;;2.40;99.90;;;;;;5041898;28;20180;-76
2023/01/25 07:23:16;;;;;;;12.52;8.77;;;2.30;99.90;;;;;;5060380;28;20193;-74
2023/01/25 07:25:49;;;;;;;11.98;8.05;;;2.30;99.90;;;;;;5057554;28;20663;-74
2023/01/25 07:28:16;;;;;;;12.60;9.32;;;2.30;99.90;;;;;;5057435;28;20666;-73
2023/01/25 07:30:42;;;;;;;10.90;8.30;;;2.40;99.90;;;;;;5050989;28;20193;-73
2023/01/25 07:33:09;;;;;;;10.55;8.35;;;2.50;99.90;;;;;;5048204;28;20254;-74
2023/01/25 07:35:35;;;;;;;13.13;10.27;;;2.40;99.90;;;;;;5057927;28;20222;-74
2023/01/25 07:38:01;;;;;;;14.15;10.68;;;2.50;99.90;;;;;;5046696;28;20192;-73
2023/01/25 07:40:27;;;;;;;12.43;9.35;;;2.50;99.90;;;;;;5051604;28;20222;-73
2023/01/25 07:42:53;;;;;;;13.52;9.23;;;2.50;99.90;;;;;;5062167;28;20187;-74
2023/01/25 07:45:19;;;;;;;10.57;9.30;;;2.50;99.90;;;;;;5059799;28;20290;-74
2023/01/25 07:47:45;;;;;;;12.27;9.68;;;2.50;99.90;;;;;;5064804;28;20183;-73
2023/01/25 07:50:11;;;;;;;11.35;9.02;;;2.50;99.90;;;;;;5053997;28;20586;-74
2023/01/25 07:52:37;;;;;;;10.23;8.10;;;2.30;99.90;;;;;;5054851;28;20175;-72
2023/01/25 07:55:03;;;;;;;12.10;8.93;;;2.30;99.90;;;;;;5061819;28;20200;-72
2023/01/25 07:57:28;;;;;;;10.38;8.75;;;2.30;99.90;;;;;;5057622;28;20194;-73
2023/01/25 07:59:54;;;;;;;10.23;8.85;;;2.40;99.90;;;;;;5060649;28;20282;-73
2023/01/25 08:02:20;;;;;;;12.75;9.07;;;2.40;99.90;;;;;;5066517;28;20248;-72
2023/01/25 08:04:45;;;;;;;12.25;10.02;;;2.50;99.90;;;;;;5053287;28;20219;-72
2023/01/25 08:07:12;;;;;;;12.27;9.45;;;2.50;99.90;;;;;;5061583;28;20191;-72
2023/01/25 08:09:38;;;;;;;15.18;9.75;;;2.60;99.90;;;;;;5050080;28;20182;-74
2023/01/25 08:12:05;;;;;;;13.05;9.82;;;2.60;99.90;;;;;;5057091;28;20572;-74
2023/01/25 08:14:30;;;;;;;12.95;9.65;;;2.50;99.90;;;;;;5054812;28;20271;-78
2023/01/25 08:16:56;;;;;;;12.82;10.07;;;2.60;99.90;;;;;;5061198;28;20200;-75
2023/01/25 08:19:21;;;;;;;11.95;9.13;;;2.60;99.90;;;;;;5056520;28;20604;-75
2023/01/25 08:21:47;;;;;;;11.60;9.65;;;2.70;99.90;;;;;;5057109;28;20184;-73
2023/01/25 08:24:12;;;;;;;11.75;9.63;;;2.70;99.90;;;;;;5055019;28;20195;-74
2023/01/25 08:26:38;;;;;;;13.73;9.95;;;2.80;99.90;;;;;;5048607;28;20212;-74
2023/01/25 08:29:05;;;;;;;13.55;9.70;;;2.80;99.90;;;;;;5051175;28;20208;-74
2023/01/25 08:31:33;;;;;;;10.45;9.20;;;2.60;99.90;;;;;;5047591;28;20175;-77
2023/01/25 08:34:00;;;;;;;11.30;9.60;;;2.60;99.90;;;;;;5054459;28;20211;-74
2023/01/25 08:36:28;;;;;;;13.88;9.98;;;2.70;99.90;;;;;;5054009;28;20178;-77
2023/01/25 08:38:57;;;;;;;11.18;9.65;;;2.70;99.90;;;;;;5058611;28;20321;-75
2023/01/25 08:41:24;;;;;;;11.82;10.00;;;2.70;99.90;;;;;;5055971;28;20200;-73
2023/01/25 08:43:52;;;;;;;11.75;10.00;;;2.70;99.90;;;;;;5048654;28;20212;-76
2023/01/25 08:46:19;;;;;;;12.65;10.07;;;2.80;99.90;;;;;;5054790;28;20203;-75
2023/01/25 08:48:44;;;;;;;11.82;9.30;;;2.80;99.90;;;;;;5059859;28;20187;-75
2023/01/25 08:51:15;;;;;;;13.05;9.45;;;2.80;99.90;;;;;;5061270;28;20171;-76
2023/01/25 08:53:41;;;;;;;12.80;9.93;;;2.80;99.90;;;;;;5050841;28;20235;-74
2023/01/25 08:56:11;;;;;;;11.55;9.68;;;2.80;99.90;;;;;;5056049;28;20253;-73
2023/01/25 08:58:40;;;;;;;13.60;10.52;;;2.80;99.90;;;;;;5045203;28;20215;-73
2023/01/25 09:01:08;;;;;;;15.30;12.73;;;2.70;99.90;;;;;;5061231;28;20209;-71
2023/01/25 09:03:39;;;;;;;18.77;11.55;;;2.70;99.90;;;;;;5056720;28;20274;-72
2023/01/25 09:06:06;;;;;;;13.48;10.77;;;2.80;99.90;;;;;;5062778;28;20673;-72
2023/01/25 09:08:32;;;;;;;10.82;9.30;;;2.70;99.90;;;;;;5051170;28;20251;-73
2023/01/25 09:11:02;;;;;;;13.90;10.82;;;2.70;99.90;;;;;;5060583;28;20568;-73
2023/01/25 09:13:28;;;;;;;14.48;11.50;;;2.80;99.90;;;;;;5058702;28;20261;-74
2023/01/25 09:16:05;;;;;;;13.63;10.70;;;2.80;99.90;;;;;;5050443;28;20187;-73
2023/01/25 09:18:31;;;;;;;13.52;10.48;;;2.80;99.90;;;;;;5055195;28;20664;-73
2023/01/25 09:20:57;;;;;;;14.93;10.38;;;2.90;99.90;;;;;;5052486;28;20618;-73
2023/01/25 09:23:23;;;;;;;13.98;10.35;;;3.00;99.90;;;;;;5049789;28;20263;-73
2023/01/25 09:25:57;;;;;;;12.38;10.10;;;3.10;99.90;;;;;;5066076;28;20678;-72
2023/01/25 09:28:22;;;;;;;12.40;10.60;;;3.10;99.90;;;;;;5053071;28;20230;-73
2023/01/25 09:31:03;;;;;;;12.77;9.98;;;3.10;99.90;;;;;;5058869;28;20183;-73
2023/01/25 09:33:33;;;;;;;12.20;10.05;;;3.10;99.90;;;;;;5065339;28;20266;-73
2023/01/25 09:35:59;;;;;;;15.65;11.40;;;3.10;99.90;;;;;;5049790;28;20242;-72
2023/01/25 09:38:24;;;;;;;13.45;9.93;;;3.10;99.90;;;;;;5059492;28;20191;-72
2023/01/25 09:41:15;;;;;;;14.07;10.93;;;3.20;99.90;;;;;;5064305;28;20178;-73
2023/01/25 09:44:02;;;;;;;11.20;9.93;;;3.30;99.90;;;;;;5057564;28;20211;-79
2023/01/25 09:46:47;;;;;;;13.57;10.27;;;3.20;99.90;;;;;;5048703;28;20318;-75
2023/01/25 09:49:42;;;;;;;10.85;9.48;;;3.10;99.90;;;;;;5046483;28;20295;-76
2023/01/25 09:52:35;;;;;;;10.95;9.23;;;3.10;99.90;;;;;;5045080;28;20235;-77
2023/01/25 09:55:02;;;;;;;11.75;9.93;;;3.10;99.90;;;;;;5047136;28;20238;-76
2023/01/25 09:57:36;;;;;;;11.98;10.05;;;3.20;99.90;;;;;;5043861;28;20175;-75
2023/01/25 10:00:18;;;;;;;11.55;9.13;;;3.30;99.90;;;;;;5051048;28;20175;-75
2023/01/25 10:02:57;;;;;;;11.15;9.07;;;3.30;99.90;;;;;;5060171;28;20178;-73
2023/01/25 10:05:27;;;;;;;10.57;9.45;;;3.30;99.90;;;;;;5053859;28;20542;-73
2023/01/25 10:08:01;;;;;;;12.82;10.18;;;3.30;99.90;;;;;;5062349;28;20240;-78
2023/01/25 10:10:38;;;;;;;13.00;9.65;;;3.30;99.90;;;;;;5052644;28;20650;-77
2023/01/25 10:13:11;;;;;;;13.15;9.77;;;3.40;99.90;;;;;;5054272;28;20184;-77
2023/01/25 10:15:42;;;;;;;10.68;9.57;;;3.40;99.90;;;;;;5057088;28;20187;-76
2023/01/25 10:18:23;;;;;;;12.57;9.32;;;3.40;99.90;;;;;;5054717;28;20649;-75
2023/01/25 10:20:56;;;;;;;11.40;8.88;;;3.20;99.90;;;;;;5062384;28;20214;-75
2023/01/25 10:23:49;;;;;;;15.90;9.63;;;3.20;99.90;;;;;;5052828;28;20271;-73
2023/01/25 10:26:28;;;;;;;11.55;9.93;;;3.20;99.90;;;;;;5050824;28;20224;-73
2023/01/25 10:29:20;;;;;;;10.48;9.30;;;3.30;99.90;;;;;;5047181;28;20179;-73
2023/01/25 10:32:09;;;;;;;10.48;8.95;;;3.30;99.90;;;;;;5052398;28;20191;-72
2023/01/25 10:34:40;;;;;;;10.55;9.20;;;3.30;99.90;;;;;;5057247;28;20198;-72
2023/01/25 10:37:17;;;;;;;13.70;10.43;;;3.40;99.90;;;;;;5067422;28;20646;-74
2023/01/25 10:40:01;;;;;;;12.25;9.95;;;3.30;99.90;;;;;;5049102;28;20187;-73
2023/01/25 10:42:32;;;;;;;13.05;10.32;;;3.10;99.90;;;;;;5048632;28;20208;-73
2023/01/25 10:44:57;;;;;;;11.40;9.48;;;2.90;99.90;;;;;;5046147;28;20195;-73
2023/01/25 10:47:33;;;;;;;11.45;8.85;;;3.00;99.90;;;;;;5055358;28;20261;-73
2023/01/25 10:49:59;;;;;;;10.98;9.35;;;3.10;99.90;;;;;;5059825;28;20171;-75
2023/01/25 10:52:28;;;;;;;13.23;9.05;;;3.20;99.90;;;;;;5049530;28;20643;-75
2023/01/25 10:55:16;;;;;;;10.52;9.43;;;3.30;99.90;;;;;;5044566;28;20255;-74
2023/01/25 10:57:51;;;;;;;12.00;9.73;;;3.30;99.90;;;;;;5039196;28;20183;-74
2023/01/25 11:00:27;;;;;;;13.20;10.88;;;3.30;99.90;;;;;;5045715;28;20175;-74
2023/01/25 11:02:54;;;;;;;12.10;10.07;;;3.30;99.90;;;;;;5049160;28;20606;-75
2023/01/25 11:05:36;;;;;;;10.93;9.75;;;3.20;99.90;;;;;;5052392;28;20246;-74
2023/01/25 11:08:32;;;;;;;12.27;9.45;;;3.20;99.90;;;;;;5033996;28;20200;-74
2023/01/25 11:10:58;;;;;;;11.95;10.18;;;3.30;99.90;;;;;;5039048;28;20173;-73
2023/01/25 11:13:26;;;;;;;11.25;9.68;;;3.50;99.90;;;;;;5036669;28;20199;-73
2023/01/25 11:16:27;;;;;;;11.15;9.80;;;3.50;99.90;;;;;;5036531;28;20181;-73
2023/01/25 11:18:55;;;;;;;11.55;10.02;;;3.60;99.90;;;;;;5020226;28;20176;-74
2023/01/25 11:21:24;;;;;;;10.70;9.23;;;3.70;99.90;;;;;;5026753;28;20187;-73
2023/01/25 11:24:00;;;;;;;10.27;9.07;;;3.70;99.90;;;;;;5030824;28;20203;-73
2023/01/25 11:26:26;;;;;;;11.50;9.70;;;3.70;99.90;;;;;;5024742;28;20243;-73
2023/01/25 11:29:15;;;;;;;10.65;9.60;;;3.80;99.90;;;;;;5031168;28;20181;-73
2023/01/25 11:31:45;;;;;;;11.93;9.32;;;3.80;99.90;;;;;;5023415;28;20290;-74
2023/01/25 11:34:13;;;;;;;10.10;8.98;;;3.80;99.90;;;;;;5025551;28;20722;-74
2023/01/25 11:37:10;;;;;;;10.80;8.95;;;3.80;99.90;;;;;;5037542;28;20177;-74
2023/01/25 11:40:02;;;;;;;10.75;9.57;;;3.60;99.90;;;;;;5051688;28;20183;-74
2023/01/25 11:42:57;;;;;;;11.35;9.55;;;3.50;99.90;;;;;;5026878;28;20177;-74
2023/01/25 11:45:37;;;;;;;13.32;10.55;;;3.40;99.90;;;;;;5027146;28;20210;-73
2023/01/25 11:48:28;;;;;;;10.55;9.45;;;3.50;99.90;;;;;;5041321;28;20189;-73
2023/01/25 11:51:04;;;;;;;13.90;11.32;;;3.60;99.90;;;;;;5033609;28;20173;-73
2023/01/25 11:53:38;;;;;;;11.80;10.35;;;3.60;99.90;;;;;;5039187;28;20653;-73
2023/01/25 11:56:12;;;;;;;12.63;11.30;;;3.60;99.90;;;;;;5035200;28;20178;-73
2023/01/25 11:58:49;;;;;;;10.73;9.63;;;3.60;99.90;;;;;;5038064;28;20541;-74
2023/01/25 12:01:47;;;;;;;12.18;10.10;;;3.70;99.90;;;;;;5026614;28;20198;-74
2023/01/25 12:04:30;;;;;;;11.75;10.27;;;3.70;99.90;;;;;;5029467;28;20636;-74
2023/01/25 12:07:12;;;;;;;12.38;10.00;;;3.70;99.90;;;;;;5028548;28;20213;-73
2023/01/25 12:09:56;;;;;;;11.55;10.27;;;3.70;99.90;;;;;;5027913;28;20310;-73
2023/01/25 12:12:40;;;;;;;11.95;9.10;;;3.80;99.90;;;;;;5032174;28;20527;-74
2023/01/25 12:15:19;;;;;;;12.00;10.27;;;3.80;99.90;;;;;;5033905;28;20193;-73
2023/01/25 12:17:44;;;;;;;11.02;9.10;;;3.70;99.90;;;;;;5031741;28;20192;-73
2023/01/25 12:20:10;;;;;;;11.70;9.93;;;3.70;99.90;;;;;;5029122;28;20176;-73
2023/01/25 12:22:41;;;;;;;11.18;9.38;;;3.70;99.90;;;;;;5039434;28;20172;-73
2023/01/25 12:25:36;;;;;;;13.80;10.40;;;3.70;99.90;;;;;;5037076;28;20275;-74
2023/01/25 12:28:08;;;;;;;13.65;10.07;;;3.70;99.90;;;;;;5031059;28;20203;-74
2023/01/25 12:30:51;;;;;;;13.23;10.00;;;3.80;99.90;;;;;;5038282;28;20195;-78
2023/01/25 12:33:47;;;;;;;11.80;8.90;;;3.80;99.90;;;;;;5033139;28;20244;-76
2023/01/25 12:36:17;;;;;;;9.48;8.48;;;3.60;99.90;;;;;;5026732;28;20272;-75
2023/01/25 12:38:43;;;;;;;9.70;8.18;;;3.50;99.90;;;;;;5032399;28;20173;-77
2023/01/25 12:41:33;;;;;;;9.45;8.32;;;3.60;99.90;;;;;;5040558;28;20175;-77
2023/01/25 12:44:16;;;;;;;11.35;8.75;;;3.60;99.90;;;;;;5033630;28;20280;-79
2023/01/25 12:46:51;;;;;;;10.90;8.35;;;3.60;99.90;;;;;;5032133;28;20575;-76
2023/01/25 12:49:38;;;;;;;9.55;8.10;;;3.60;99.90;;;;;;5022917;28;20271;-75
2023/01/25 12:52:30;;;;;;;11.02;8.43;;;3.60;99.90;;;;;;5030639;28;20730;-75
2023/01/25 12:55:00;;;;;;;9.77;8.07;;;3.60;99.90;;;;;;5028325;28;20201;-75
2023/01/25 12:58:06;;;;;;;11.68;8.98;;;3.60;99.90;;;;;;5032699;28;20670;-75
2023/01/25 13:00:40;;;;;;;11.43;9.05;;;3.40;99.90;;;;;;4985583;28;20182;-76
2023/01/25 13:03:36;;;;;;;11.95;9.30;;;3.30;99.90;;;;;;5031926;28;20195;-75
2023/01/25 13:06:33;;;;;;;10.45;8.68;;;3.30;99.90;;;;;;5029714;28;20208;-75
2023/01/25 13:09:07;;;;;;;10.70;8.65;;;3.40;99.90;;;;;;5031250;28;20188;-75